createdAt,value
2023-03-13T00:00:59.361Z,30.78
2023-03-13T00:01:59.472Z,30.79
2023-03-13T00:02:59.493Z,30.78
2023-03-13T00:03:59.577Z,30.75
2023-03-13T00:04:59.730Z,30.75
2023-03-13T00:05:59.752Z,30.75
2023-03-13T00:06:59.882Z,30.76
2023-03-13T00:07:59.924Z,30.78
2023-03-13T00:09:00.726Z,30.76
2023-03-13T00:10:00.122Z,30.76
2023-03-13T00:11:00.175Z,30.78
2023-03-13T00:12:00.263Z,30.77
2023-03-13T00:13:00.392Z,30.77
2023-03-13T00:14:00.452Z,30.76
2023-03-13T00:15:00.532Z,30.74
2023-03-13T00:16:00.630Z,30.76
2023-03-13T00:17:00.750Z,30.75
2023-03-13T00:18:00.793Z,30.76
2023-03-13T00:19:00.887Z,30.74
2023-03-13T00:20:00.974Z,30.76
2023-03-13T00:21:01.054Z,30.75
2023-03-13T00:22:01.157Z,30.76
2023-03-13T00:23:01.237Z,30.73
2023-03-13T00:24:01.321Z,30.75
2023-03-13T00:25:01.477Z,30.76
2023-03-13T00:26:02.241Z,30.80
2023-03-13T00:27:01.561Z,30.78
2023-03-13T00:28:01.650Z,30.77
2023-03-13T00:29:01.744Z,30.74
2023-03-13T00:30:01.836Z,30.75
2023-03-13T00:31:01.997Z,30.75
2023-03-13T00:32:02.064Z,30.74
2023-03-13T00:33:02.105Z,30.74
2023-03-13T00:34:02.234Z,30.73
2023-03-13T00:35:02.222Z,30.73
2023-03-13T00:36:02.330Z,30.72
2023-03-13T00:37:02.419Z,30.77
2023-03-13T00:38:02.492Z,30.74
2023-03-13T00:39:02.571Z,30.73
2023-03-13T00:40:02.628Z,30.71
2023-03-13T00:41:02.714Z,30.72
2023-03-13T00:42:02.813Z,30.74
2023-03-13T00:43:02.891Z,30.72
2023-03-13T00:44:02.963Z,30.72
2023-03-13T00:45:03.033Z,30.72
2023-03-13T00:46:03.194Z,30.71
2023-03-13T00:47:03.153Z,30.69
2023-03-13T00:48:03.240Z,30.71
2023-03-13T00:49:03.303Z,30.70
2023-03-13T00:50:03.369Z,30.70
2023-03-13T00:51:03.445Z,30.71
2023-03-13T00:52:03.608Z,30.76
2023-03-13T00:53:03.621Z,30.72
2023-03-13T00:54:03.707Z,30.71
2023-03-13T00:55:03.750Z,30.71
2023-03-13T00:56:03.799Z,30.72
2023-03-13T00:57:03.907Z,30.71
2023-03-13T00:58:03.989Z,30.72
2023-03-13T00:59:04.253Z,30.70
2023-03-13T01:00:04.128Z,30.72
2023-03-13T01:01:04.202Z,30.69
2023-03-13T01:02:04.342Z,30.71
2023-03-13T01:03:04.458Z,30.68
2023-03-13T01:04:04.445Z,30.70
2023-03-13T01:05:04.536Z,30.70
2023-03-13T01:06:04.613Z,30.68
2023-03-13T01:07:04.680Z,30.69
2023-03-13T01:08:04.753Z,30.68
2023-03-13T01:09:04.810Z,30.66
2023-03-13T01:10:04.886Z,30.69
2023-03-13T01:11:04.929Z,30.67
2023-03-13T01:12:05.003Z,30.70
2023-03-13T01:13:05.086Z,30.67
2023-03-13T01:14:05.155Z,30.68
2023-03-13T01:15:05.227Z,30.68
2023-03-13T01:16:05.335Z,30.67
2023-03-13T01:17:05.394Z,30.66
2023-03-13T01:18:05.502Z,30.68
2023-03-13T01:19:05.550Z,30.68
2023-03-13T01:20:05.669Z,30.68
2023-03-13T01:21:05.722Z,30.67
2023-03-13T01:22:05.803Z,30.69
2023-03-13T01:23:05.884Z,30.70
2023-03-13T01:24:05.964Z,30.70
2023-03-13T01:25:06.032Z,30.69
2023-03-13T01:26:06.122Z,30.69
2023-03-13T01:27:06.183Z,30.66
2023-03-13T01:28:06.259Z,30.67
2023-03-13T01:29:06.394Z,30.67
2023-03-13T01:30:06.410Z,30.65
2023-03-13T01:31:06.592Z,30.65
2023-03-13T01:32:06.537Z,30.66
2023-03-13T01:33:06.609Z,30.65
2023-03-13T01:34:06.676Z,30.65
2023-03-13T01:35:06.739Z,30.65
2023-03-13T01:36:06.802Z,30.62
2023-03-13T01:37:06.864Z,30.63
2023-03-13T01:38:06.977Z,30.62
2023-03-13T01:39:07.029Z,30.63
2023-03-13T01:40:07.061Z,30.61
2023-03-13T01:41:07.117Z,30.63
2023-03-13T01:42:07.194Z,30.64
2023-03-13T01:43:09.848Z,30.63
2023-03-13T01:44:07.519Z,30.67
2023-03-13T01:45:07.611Z,30.67
2023-03-13T01:46:07.690Z,30.67
2023-03-13T01:47:07.750Z,30.68
2023-03-13T01:48:07.892Z,30.70
2023-03-13T01:49:07.908Z,30.67
2023-03-13T01:50:08.001Z,30.68
2023-03-13T01:51:08.080Z,30.68
2023-03-13T01:52:08.159Z,30.66
2023-03-13T01:53:08.218Z,30.66
2023-03-13T01:54:08.294Z,30.65
2023-03-13T01:55:08.373Z,30.64
2023-03-13T01:56:08.428Z,30.65
2023-03-13T01:57:08.493Z,30.65
2023-03-13T01:58:08.573Z,30.68
2023-03-13T01:59:08.621Z,30.65
2023-03-13T02:00:08.668Z,30.61
2023-03-13T02:01:08.735Z,30.63
2023-03-13T02:02:08.893Z,30.62
2023-03-13T02:03:08.965Z,30.61
2023-03-13T02:04:08.934Z,30.61
2023-03-13T02:05:09.009Z,30.62
2023-03-13T02:06:09.081Z,30.59
2023-03-13T02:07:09.152Z,30.59
2023-03-13T02:08:09.198Z,30.60
2023-03-13T02:09:09.275Z,30.58
2023-03-13T02:10:09.342Z,30.59
2023-03-13T02:11:09.494Z,30.59
2023-03-13T02:12:09.484Z,30.57
2023-03-13T02:13:09.561Z,30.57
2023-03-13T02:14:09.633Z,30.60
2023-03-13T02:15:09.706Z,30.60
2023-03-13T02:16:09.822Z,30.58
2023-03-13T02:17:09.866Z,30.58
2023-03-13T02:18:09.925Z,30.58
2023-03-13T02:19:09.986Z,30.56
2023-03-13T02:20:10.066Z,30.58
2023-03-13T02:21:10.279Z,30.56
2023-03-13T02:22:10.227Z,30.54
2023-03-13T02:23:10.303Z,30.53
2023-03-13T02:24:10.371Z,30.56
2023-03-13T02:25:10.429Z,30.54
2023-03-13T02:26:10.507Z,30.55
2023-03-13T02:27:10.588Z,30.56
2023-03-13T02:28:10.661Z,30.55
2023-03-13T02:29:10.727Z,30.54
2023-03-13T02:30:10.800Z,30.55
2023-03-13T02:31:10.900Z,30.54
2023-03-13T02:32:10.934Z,30.56
2023-03-13T02:33:11.011Z,30.55
2023-03-13T02:34:11.083Z,30.59
2023-03-13T02:35:11.156Z,30.55
2023-03-13T02:36:11.238Z,30.56
2023-03-13T02:37:11.304Z,30.54
2023-03-13T02:38:11.364Z,30.54
2023-03-13T02:39:11.443Z,30.56
2023-03-13T02:40:11.596Z,30.54
2023-03-13T02:41:11.617Z,30.54
2023-03-13T02:42:11.670Z,30.56
2023-03-13T02:43:11.736Z,30.57
2023-03-13T02:44:11.829Z,30.58
2023-03-13T02:45:11.903Z,30.56
2023-03-13T02:46:12.031Z,30.56
2023-03-13T02:47:12.040Z,30.55
2023-03-13T02:48:12.116Z,30.54
2023-03-13T02:49:12.188Z,30.55
2023-03-13T02:50:12.256Z,30.56
2023-03-13T02:51:12.420Z,30.53
2023-03-13T02:52:12.403Z,30.56
2023-03-13T02:53:12.461Z,30.54
2023-03-13T02:54:12.540Z,30.54
2023-03-13T02:55:12.616Z,30.55
2023-03-13T02:56:12.693Z,30.54
2023-03-13T02:57:12.763Z,30.53
2023-03-13T02:58:12.846Z,30.51
2023-03-13T02:59:12.921Z,30.50
2023-03-13T03:00:12.986Z,30.51
2023-03-13T03:01:13.149Z,30.47
2023-03-13T03:02:13.143Z,30.49
2023-03-13T03:03:13.217Z,30.46
2023-03-13T03:04:13.371Z,30.49
2023-03-13T03:05:13.388Z,30.48
2023-03-13T03:06:13.447Z,30.47
2023-03-13T03:07:13.520Z,30.48
2023-03-13T03:08:13.588Z,30.46
2023-03-13T03:09:13.658Z,30.48
2023-03-13T03:10:13.736Z,30.44
2023-03-13T03:11:13.809Z,30.43
2023-03-13T03:12:14.300Z,30.42
2023-03-13T03:13:13.965Z,30.41
2023-03-13T03:14:14.054Z,30.43
2023-03-13T03:15:14.137Z,30.43
2023-03-13T03:16:14.201Z,30.41
2023-03-13T03:17:14.273Z,30.39
2023-03-13T03:18:14.342Z,30.36
2023-03-13T03:19:14.417Z,30.35
2023-03-13T03:20:14.497Z,30.36
2023-03-13T03:21:14.587Z,30.36
2023-03-13T03:22:14.631Z,30.36
2023-03-13T03:23:14.701Z,30.34
2023-03-13T03:24:14.764Z,30.33
2023-03-13T03:25:14.819Z,30.32
2023-03-13T03:26:14.876Z,30.29
2023-03-13T03:27:15.305Z,30.29
2023-03-13T03:28:14.992Z,30.25
2023-03-13T03:29:15.109Z,30.23
2023-03-13T03:30:15.143Z,30.21
2023-03-13T03:31:15.278Z,30.20
2023-03-13T03:32:15.307Z,30.18
2023-03-13T03:33:15.386Z,30.11
2023-03-13T03:59:17.020Z,29.60
2023-03-13T05:25:20.845Z,29.27
2023-03-13T05:37:20.704Z,29.26
2023-03-13T05:38:20.692Z,29.26
2023-03-13T05:39:20.749Z,29.30
2023-03-13T05:40:20.806Z,29.31
2023-03-13T05:41:20.838Z,29.28
2023-03-13T05:42:20.874Z,29.28
2023-03-13T05:43:20.928Z,29.28
2023-03-13T05:44:20.963Z,29.28
2023-03-13T05:45:21.012Z,29.29
2023-03-13T05:46:21.116Z,29.27
2023-03-13T05:47:21.109Z,29.26
2023-03-13T05:48:21.157Z,29.27
2023-03-13T05:49:21.203Z,29.27
2023-03-13T05:50:21.241Z,29.27
2023-03-13T05:51:21.304Z,29.27
2023-03-13T05:52:21.343Z,29.25
2023-03-13T05:53:21.387Z,29.25
2023-03-13T05:54:21.445Z,29.28
2023-03-13T05:55:21.479Z,29.29
2023-03-13T05:56:21.539Z,29.26
2023-03-13T05:57:21.572Z,29.26
2023-03-13T05:58:21.627Z,29.28
2023-03-13T05:59:21.669Z,29.25
2023-03-13T06:00:21.717Z,29.26
2023-03-13T06:01:21.761Z,29.26
2023-03-13T06:02:21.790Z,29.26
2023-03-13T06:03:21.900Z,29.26
2023-03-13T06:04:21.957Z,29.25
2023-03-13T06:05:21.921Z,29.26
2023-03-13T06:46:24.374Z,38.09
2023-03-13T09:36:30.940Z,32.43
2023-03-13T09:37:30.932Z,31.35
2023-03-13T09:38:30.651Z,31.18
2023-03-13T09:39:30.680Z,31.45
2023-03-13T09:40:30.685Z,31.92
2023-03-13T09:41:30.713Z,32.13
2023-03-13T09:42:30.713Z,32.28
2023-03-13T09:43:30.762Z,32.60
2023-03-13T09:44:30.807Z,33.16
2023-03-13T09:45:30.883Z,32.93
2023-03-13T09:46:30.986Z,32.85
2023-03-13T09:47:31.022Z,32.58
2023-03-13T09:48:31.076Z,32.43
2023-03-13T09:49:31.141Z,32.39
2023-03-13T09:50:31.176Z,32.51
2023-03-13T09:51:31.227Z,32.51
2023-03-13T09:52:31.933Z,32.56
2023-03-13T09:53:31.307Z,32.63
2023-03-13T09:54:31.335Z,32.78
2023-03-13T09:55:31.382Z,32.73
2023-03-13T09:56:31.397Z,32.80
2023-03-13T09:57:31.439Z,32.79
2023-03-13T09:58:31.583Z,33.00
2023-03-13T09:59:31.505Z,33.12
2023-03-13T10:00:31.470Z,33.34
2023-03-13T10:01:31.611Z,33.64
2023-03-13T10:02:31.559Z,33.81
2023-03-13T10:03:31.508Z,34.10
2023-03-13T10:04:31.674Z,34.23
2023-03-13T10:05:31.604Z,34.38
2023-03-13T10:06:31.656Z,34.56
2023-03-13T10:07:31.711Z,34.89
2023-03-13T10:09:31.838Z,35.20
2023-03-13T10:10:31.909Z,35.37
2023-03-13T10:12:31.963Z,35.95
2023-03-13T10:13:32.032Z,36.17
2023-03-13T10:14:32.095Z,36.19
2023-03-13T10:15:32.152Z,36.57
2023-03-13T10:16:32.257Z,36.62
2023-03-13T10:21:32.507Z,37.36
2023-03-13T10:22:33.364Z,37.54
2023-03-13T10:26:32.743Z,38.23
2023-03-13T10:31:33.037Z,38.99
2023-03-13T14:34:40.714Z,32.99
2023-03-13T14:35:40.720Z,32.98
2023-03-13T14:36:40.724Z,32.97
2023-03-13T14:37:40.770Z,33.00
2023-03-13T14:38:40.810Z,32.97
2023-03-13T14:39:40.917Z,32.98
2023-03-13T14:40:40.898Z,33.00
2023-03-13T14:41:40.956Z,32.98
2023-03-13T14:42:40.996Z,32.97
2023-03-13T14:43:41.056Z,32.97
2023-03-13T14:44:41.086Z,32.98
2023-03-13T14:45:41.127Z,32.96
2023-03-13T14:46:41.272Z,32.96
2023-03-13T14:47:41.229Z,32.98
2023-03-13T14:48:41.293Z,32.97
2023-03-13T14:49:41.350Z,32.96
2023-03-13T14:50:41.367Z,32.97
2023-03-13T14:51:41.446Z,32.96
2023-03-13T14:52:41.537Z,32.97
2023-03-13T14:53:41.511Z,32.95
2023-03-13T14:54:41.565Z,32.95
2023-03-13T14:55:41.616Z,32.94
2023-03-13T14:57:41.710Z,32.95
2023-03-13T14:58:41.764Z,32.94
2023-03-13T14:59:41.876Z,32.95
2023-03-13T15:00:41.895Z,32.95
2023-03-13T15:01:41.913Z,32.95
2023-03-13T15:02:41.957Z,32.96
2023-03-13T15:03:42.001Z,32.97
2023-03-13T15:04:42.070Z,32.95
2023-03-13T15:05:42.098Z,32.93
2023-03-13T15:06:42.154Z,32.93
2023-03-13T15:07:42.206Z,32.95
2023-03-13T15:08:42.260Z,32.95
2023-03-13T15:09:42.301Z,32.95
2023-03-13T15:10:42.354Z,32.96
2023-03-13T15:11:42.404Z,32.96
2023-03-13T15:12:42.456Z,32.95
2023-03-13T15:13:42.505Z,32.96
2023-03-13T15:14:42.551Z,32.94
2023-03-13T15:15:42.600Z,32.96
2023-03-13T15:16:42.681Z,32.96
2023-03-13T15:17:42.709Z,32.96
2023-03-13T15:18:42.734Z,32.95
2023-03-13T15:19:42.770Z,32.96
2023-03-13T15:20:42.811Z,32.94
2023-03-13T15:21:42.824Z,32.98
2023-03-13T15:22:42.867Z,32.96
2023-03-13T15:23:42.900Z,32.96
2023-03-13T15:24:44.130Z,32.95
2023-03-13T15:25:43.996Z,32.97
2023-03-13T15:26:42.921Z,32.97
2023-03-13T15:27:42.926Z,32.97
2023-03-13T15:28:42.928Z,32.98
2023-03-13T15:29:42.921Z,32.97
2023-03-13T15:30:42.922Z,32.96
2023-03-13T15:31:42.980Z,33.00
2023-03-13T15:32:43.063Z,33.01
2023-03-13T15:33:42.943Z,32.99
2023-03-13T15:34:42.940Z,32.98
2023-03-13T15:35:42.976Z,32.98
2023-03-13T15:36:42.964Z,32.97
2023-03-13T15:37:42.961Z,33.00
2023-03-13T15:38:42.958Z,32.99
2023-03-13T15:39:43.021Z,33.00
2023-03-13T15:40:42.969Z,32.99
2023-03-13T15:41:42.984Z,33.02
2023-03-13T15:42:42.997Z,33.00
2023-03-13T15:43:43.572Z,32.99
2023-03-13T15:44:43.060Z,32.97
2023-03-13T15:45:43.102Z,33.01
2023-03-13T15:46:43.136Z,33.01
2023-03-13T15:47:43.179Z,33.01
2023-03-13T15:48:43.233Z,32.99
2023-03-13T15:49:43.258Z,32.99
2023-03-13T15:50:43.296Z,33.01
2023-03-13T15:51:43.334Z,33.01
2023-03-13T15:52:43.378Z,33.03
2023-03-13T15:53:43.413Z,33.02
2023-03-13T15:54:43.480Z,33.03
2023-03-13T15:55:43.544Z,33.00
2023-03-13T15:56:43.531Z,33.03
2023-03-13T15:57:43.576Z,33.03
2023-03-13T15:58:43.612Z,33.02
2023-03-13T15:59:43.654Z,33.04
2023-03-13T16:00:43.707Z,33.04
2023-03-13T16:01:43.811Z,33.04
2023-03-13T16:02:43.796Z,33.04
2023-03-13T16:03:43.867Z,33.03
2023-03-13T16:04:43.908Z,33.04
2023-03-13T16:05:43.916Z,33.03
2023-03-13T16:06:43.981Z,33.03
2023-03-13T16:07:44.015Z,33.04
2023-03-13T16:08:44.064Z,33.05
2023-03-13T16:09:44.112Z,33.05
2023-03-13T16:10:44.146Z,33.05
2023-03-13T16:11:44.190Z,33.06
2023-03-13T16:12:44.242Z,33.08
2023-03-13T16:13:44.319Z,33.07
2023-03-13T16:14:44.344Z,33.06
2023-03-13T16:15:44.388Z,33.05
2023-03-13T16:16:44.505Z,33.04
2023-03-13T16:17:44.469Z,33.06
2023-03-13T16:18:44.544Z,33.06
2023-03-13T16:19:44.569Z,33.05
2023-03-13T16:20:44.620Z,33.08
2023-03-13T16:21:44.649Z,33.07
2023-03-13T16:22:44.694Z,33.09
2023-03-13T16:23:44.754Z,33.10
2023-03-13T16:24:44.864Z,33.07
2023-03-13T16:25:44.896Z,33.11
2023-03-13T16:26:44.944Z,33.09
2023-03-13T16:27:45.078Z,33.10
2023-03-13T16:28:45.098Z,33.11
2023-03-13T16:30:45.285Z,33.13
2023-03-13T16:31:45.311Z,33.11
2023-03-13T16:32:45.402Z,33.12
2023-03-13T16:33:45.452Z,33.13
2023-03-13T16:34:45.520Z,33.13
2023-03-13T16:35:45.655Z,33.12
2023-03-13T16:36:45.680Z,33.12
2023-03-13T16:47:46.511Z,33.12
2023-03-13T17:38:51.093Z,33.35
2023-03-13T17:42:50.646Z,33.37
2023-03-13T17:43:50.734Z,33.36
2023-03-13T17:44:50.806Z,33.39
2023-03-13T17:45:50.837Z,33.37
2023-03-13T17:46:50.950Z,33.33
2023-03-13T17:47:50.935Z,33.35
2023-03-13T17:48:51.015Z,33.35
2023-03-13T17:49:51.013Z,33.33
2023-03-13T17:50:51.073Z,33.33
2023-03-13T17:51:51.132Z,33.35
2023-03-13T17:52:51.205Z,33.33
2023-03-13T17:53:51.243Z,33.36
2023-03-13T17:54:51.289Z,33.34
2023-03-13T17:55:51.305Z,33.35
2023-03-13T17:56:51.334Z,33.36
2023-03-13T17:57:51.364Z,33.36
2023-03-13T17:58:51.384Z,33.35
2023-03-13T17:59:51.405Z,33.36
2023-03-13T18:00:51.434Z,33.35
2023-03-13T18:01:51.516Z,33.39
2023-03-13T18:02:51.595Z,33.39
2023-03-13T18:03:51.549Z,33.36
2023-03-13T18:04:51.558Z,33.33
2023-03-13T18:05:51.601Z,33.35
2023-03-13T18:06:51.625Z,33.36
2023-03-13T18:07:51.676Z,33.39
2023-03-13T18:08:51.657Z,33.36
2023-03-13T18:09:51.691Z,33.35
2023-03-13T18:10:51.702Z,33.37
2023-03-13T18:11:51.722Z,33.38
2023-03-13T18:12:51.740Z,33.38
2023-03-13T18:13:51.762Z,33.36
2023-03-13T18:14:51.766Z,33.38
2023-03-13T18:15:51.841Z,33.37
2023-03-13T18:16:51.790Z,33.37
2023-03-13T18:17:51.801Z,33.34
2023-03-13T18:18:51.819Z,33.39
2023-03-13T18:19:51.828Z,33.37
2023-03-13T18:20:51.833Z,33.38
2023-03-13T18:21:51.857Z,33.36
2023-03-13T18:22:51.876Z,33.36
2023-03-13T18:23:51.861Z,33.34
2023-03-13T18:24:51.899Z,33.36
2023-03-13T18:25:51.889Z,33.35
2023-03-13T18:26:51.925Z,33.38
2023-03-13T18:27:51.910Z,33.37
2023-03-13T18:28:51.931Z,33.38
2023-03-13T18:29:51.949Z,33.38
2023-03-13T18:30:51.967Z,33.39
2023-03-13T18:31:52.004Z,33.37
2023-03-13T18:32:52.021Z,33.36
2023-03-13T18:33:52.017Z,33.38
2023-03-13T18:34:52.011Z,33.40
2023-03-13T18:35:52.050Z,33.37
2023-03-13T18:36:52.029Z,33.38
2023-03-13T18:37:52.049Z,33.37
2023-03-13T18:38:52.066Z,33.36
2023-03-13T18:39:52.114Z,33.37
2023-03-13T18:40:52.103Z,33.38
2023-03-13T18:41:52.111Z,33.37
2023-03-13T18:42:52.622Z,33.36
2023-03-13T18:43:52.154Z,33.35
2023-03-13T18:44:52.158Z,33.37
2023-03-13T18:45:52.255Z,33.38
2023-03-13T18:46:53.270Z,33.37
2023-03-13T18:47:52.288Z,33.36
2023-03-13T18:48:52.214Z,33.37
2023-03-13T18:49:52.224Z,33.35
2023-03-13T18:50:52.245Z,33.36
2023-03-13T18:51:52.267Z,33.37
2023-03-13T18:52:52.289Z,33.37
2023-03-13T18:53:52.298Z,33.36
2023-03-13T18:54:52.318Z,33.37
2023-03-13T18:55:52.340Z,33.35
2023-03-13T18:56:52.353Z,33.35
2023-03-13T18:57:52.379Z,33.36
2023-03-13T18:58:52.398Z,33.36
2023-03-13T18:59:52.430Z,33.40
2023-03-13T19:00:52.517Z,33.35
2023-03-13T19:01:52.565Z,33.37
2023-03-13T19:02:52.485Z,33.34
2023-03-13T19:03:52.499Z,33.36
2023-03-13T19:04:52.515Z,33.39
2023-03-13T19:05:52.549Z,33.37
2023-03-13T19:06:52.568Z,33.35
2023-03-13T19:07:52.579Z,33.35
2023-03-13T19:09:52.618Z,33.37
2023-03-13T19:10:52.662Z,33.37
2023-03-13T19:11:52.673Z,33.36
2023-03-13T19:12:52.693Z,33.38
2023-03-13T19:13:52.720Z,33.36
2023-03-13T19:14:52.734Z,33.36
2023-03-13T19:15:52.764Z,33.36
2023-03-13T19:16:52.920Z,33.35
2023-03-13T19:17:52.806Z,33.36
2023-03-13T19:18:52.835Z,33.36
2023-03-13T19:19:52.854Z,33.37
2023-03-13T19:20:52.863Z,33.35
2023-03-13T19:21:52.891Z,33.36
2023-03-13T19:22:54.528Z,33.36
2023-03-13T22:37:00.764Z,32.93
2023-03-13T22:42:01.210Z,32.91
2023-03-13T22:48:00.718Z,32.91
2023-03-13T22:50:00.667Z,32.90
2023-03-13T22:51:00.713Z,32.89
2023-03-13T22:52:00.863Z,32.91
2023-03-13T22:53:00.817Z,32.90
2023-03-13T22:54:00.877Z,32.88
2023-03-13T22:55:00.933Z,32.90
2023-03-13T22:56:00.944Z,32.90
2023-03-13T22:57:00.952Z,32.89
2023-03-13T22:58:01.037Z,32.87
2023-03-13T22:59:00.998Z,32.89
2023-03-13T23:00:01.165Z,32.87
2023-03-13T23:01:01.020Z,32.86
2023-03-13T23:02:01.027Z,32.88
2023-03-13T23:03:01.038Z,32.87
2023-03-13T23:04:01.062Z,32.88
2023-03-13T23:05:01.235Z,32.85
2023-03-13T23:06:01.091Z,32.83
2023-03-13T23:07:01.098Z,32.84
2023-03-13T23:08:01.103Z,32.85
2023-03-13T23:09:01.130Z,32.86
2023-03-13T23:10:01.147Z,32.84
2023-03-13T23:11:01.154Z,32.83
2023-03-13T23:12:01.173Z,32.83
2023-03-13T23:13:01.223Z,32.83
2023-03-13T23:14:01.282Z,32.80
2023-03-13T23:15:01.344Z,32.82
2023-03-13T23:16:01.395Z,32.81
2023-03-13T23:17:01.449Z,32.80
2023-03-13T23:18:02.276Z,32.81
2023-03-13T23:19:01.554Z,32.81
2023-03-13T23:20:01.614Z,32.82
2023-03-13T23:21:01.652Z,32.79
2023-03-13T23:22:01.708Z,32.76
2023-03-13T23:23:01.774Z,32.74
2023-03-13T23:24:01.813Z,32.73
2023-03-13T23:25:01.881Z,32.77
2023-03-13T23:26:01.938Z,32.75
2023-03-13T23:27:01.992Z,32.75
2023-03-13T23:28:02.047Z,32.77
2023-03-13T23:29:02.100Z,32.75
2023-03-13T23:30:02.180Z,32.74
2023-03-13T23:31:02.199Z,32.74
2023-03-13T23:32:02.254Z,32.72
2023-03-13T23:33:02.323Z,32.74
2023-03-13T23:34:02.356Z,32.74
2023-03-13T23:35:02.409Z,32.71
2023-03-13T23:36:02.528Z,32.75
2023-03-13T23:37:02.514Z,32.75
2023-03-13T23:38:02.569Z,32.73
2023-03-13T23:39:02.623Z,32.73
2023-03-13T23:40:02.674Z,32.72
2023-03-13T23:41:02.732Z,32.69
2023-03-13T23:42:02.780Z,32.69
2023-03-13T23:43:02.835Z,32.67
2023-03-13T23:44:02.896Z,32.68
2023-03-13T23:45:02.936Z,32.68
2023-03-13T23:46:03.001Z,32.70
2023-03-13T23:47:03.045Z,32.70
2023-03-13T23:48:03.104Z,32.69
2023-03-13T23:49:03.152Z,32.68
2023-03-13T23:50:03.207Z,32.67
2023-03-13T23:51:03.268Z,32.66
2023-03-13T23:52:03.325Z,32.66
2023-03-13T23:53:03.470Z,32.65
2023-03-13T23:54:03.421Z,32.67
2023-03-13T23:55:03.482Z,32.65
2023-03-13T23:56:03.566Z,32.65
2023-03-13T23:57:03.594Z,32.66
2023-03-13T23:58:03.641Z,32.68
2023-03-13T23:59:03.691Z,32.65
